sensor_id;sensor_type;location;lat;lon;timestamp;temperature;humidity
21682;DHT22;11002;48.256;10.084;2022-07-23T00:01:31;20.40;44.60
21682;DHT22;11002;48.256;10.084;2022-07-23T00:03:59;20.50;45.00
21682;DHT22;11002;48.256;10.084;2022-07-23T00:06:26;20.40;44.60
21682;DHT22;11002;48.256;10.084;2022-07-23T00:08:54;20.40;44.60
21682;DHT22;11002;48.256;10.084;2022-07-23T00:11:21;20.50;44.70
21682;DHT22;11002;48.256;10.084;2022-07-23T00:13:49;20.50;44.70
21682;DHT22;11002;48.256;10.084;2022-07-23T00:16:16;20.40;44.60
21682;DHT22;11002;48.256;10.084;2022-07-23T00:18:45;20.50;44.60
21682;DHT22;11002;48.256;10.084;2022-07-23T00:21:12;20.40;44.60
21682;DHT22;11002;48.256;10.084;2022-07-23T00:23:40;20.40;44.60
21682;DHT22;11002;48.256;10.084;2022-07-23T00:26:07;20.40;44.60
21682;DHT22;11002;48.256;10.084;2022-07-23T00:28:34;20.40;44.50
21682;DHT22;11002;48.256;10.084;2022-07-23T00:31:02;20.50;44.60
21682;DHT22;11002;48.256;10.084;2022-07-23T00:33:29;20.40;44.50
21682;DHT22;11002;48.256;10.084;2022-07-23T00:35:58;20.40;44.60
21682;DHT22;11002;48.256;10.084;2022-07-23T00:38:26;20.40;44.60
21682;DHT22;11002;48.256;10.084;2022-07-23T00:40:53;20.50;44.70
21682;DHT22;11002;48.256;10.084;2022-07-23T00:43:21;20.50;44.60
21682;DHT22;11002;48.256;10.084;2022-07-23T00:45:48;20.40;44.60
21682;DHT22;11002;48.256;10.084;2022-07-23T00:48:16;20.40;44.50
21682;DHT22;11002;48.256;10.084;2022-07-23T00:50:43;20.40;44.60
21682;DHT22;11002;48.256;10.084;2022-07-23T00:53:12;20.40;44.50
21682;DHT22;11002;48.256;10.084;2022-07-23T00:55:40;20.40;44.60
21682;DHT22;11002;48.256;10.084;2022-07-23T00:58:09;20.50;44.60
21682;DHT22;11002;48.256;10.084;2022-07-23T01:00:36;20.40;44.60
21682;DHT22;11002;48.256;10.084;2022-07-23T01:03:04;20.40;44.60
21682;DHT22;11002;48.256;10.084;2022-07-23T01:05:31;20.40;44.60
21682;DHT22;11002;48.256;10.084;2022-07-23T01:07:58;20.40;44.60
21682;DHT22;11002;48.256;10.084;2022-07-23T01:10:27;20.40;44.60
21682;DHT22;11002;48.256;10.084;2022-07-23T01:12:59;20.40;44.60
21682;DHT22;11002;48.256;10.084;2022-07-23T01:15:27;20.40;44.60
21682;DHT22;11002;48.256;10.084;2022-07-23T01:17:54;20.40;44.60
21682;DHT22;11002;48.256;10.084;2022-07-23T01:20:22;20.40;44.60
21682;DHT22;11002;48.256;10.084;2022-07-23T01:22:53;20.40;44.60
21682;DHT22;11002;48.256;10.084;2022-07-23T01:25:21;20.40;44.60
21682;DHT22;11002;48.256;10.084;2022-07-23T01:27:58;20.40;44.60
21682;DHT22;11002;48.256;10.084;2022-07-23T01:30:25;20.40;44.60
21682;DHT22;11002;48.256;10.084;2022-07-23T01:32:54;20.40;44.60
21682;DHT22;11002;48.256;10.084;2022-07-23T01:35:21;20.40;44.60
21682;DHT22;11002;48.256;10.084;2022-07-23T01:37:52;20.40;44.60
21682;DHT22;11002;48.256;10.084;2022-07-23T01:40:20;20.40;44.60
21682;DHT22;11002;48.256;10.084;2022-07-23T01:42:48;20.40;44.60
21682;DHT22;11002;48.256;10.084;2022-07-23T01:45:16;20.40;44.60
21682;DHT22;11002;48.256;10.084;2022-07-23T01:47:48;20.50;44.70
21682;DHT22;11002;48.256;10.084;2022-07-23T01:50:16;20.40;44.60
21682;DHT22;11002;48.256;10.084;2022-07-23T01:52:58;20.40;44.60
21682;DHT22;11002;48.256;10.084;2022-07-23T01:55:25;20.40;44.70
21682;DHT22;11002;48.256;10.084;2022-07-23T01:57:53;20.40;44.60
21682;DHT22;11002;48.256;10.084;2022-07-23T02:00:22;20.40;44.70
21682;DHT22;11002;48.256;10.084;2022-07-23T02:02:51;20.40;44.60
21682;DHT22;11002;48.256;10.084;2022-07-23T02:05:19;20.40;44.60
21682;DHT22;11002;48.256;10.084;2022-07-23T02:07:46;20.40;44.70
21682;DHT22;11002;48.256;10.084;2022-07-23T02:10:15;20.40;44.70
21682;DHT22;11002;48.256;10.084;2022-07-23T02:12:42;20.50;44.80
21682;DHT22;11002;48.256;10.084;2022-07-23T02:15:13;20.40;44.70
21682;DHT22;11002;48.256;10.084;2022-07-23T02:17:40;20.40;44.70
21682;DHT22;11002;48.256;10.084;2022-07-23T02:20:09;20.40;44.70
21682;DHT22;11002;48.256;10.084;2022-07-23T02:22:37;20.40;44.70
21682;DHT22;11002;48.256;10.084;2022-07-23T02:25:06;20.50;44.80
21682;DHT22;11002;48.256;10.084;2022-07-23T02:27:35;20.40;44.70
21682;DHT22;11002;48.256;10.084;2022-07-23T02:30:06;20.40;44.60
21682;DHT22;11002;48.256;10.084;2022-07-23T02:32:35;20.40;44.70
21682;DHT22;11002;48.256;10.084;2022-07-23T02:35:03;20.40;44.70
21682;DHT22;11002;48.256;10.084;2022-07-23T02:37:31;20.40;44.70
21682;DHT22;11002;48.256;10.084;2022-07-23T02:39:59;20.40;44.60
21682;DHT22;11002;48.256;10.084;2022-07-23T02:42:26;20.40;44.70
21682;DHT22;11002;48.256;10.084;2022-07-23T02:44:55;20.40;44.70
21682;DHT22;11002;48.256;10.084;2022-07-23T02:47:23;20.40;44.70
21682;DHT22;11002;48.256;10.084;2022-07-23T02:49:50;20.40;44.70
21682;DHT22;11002;48.256;10.084;2022-07-23T02:52:17;20.40;44.70
21682;DHT22;11002;48.256;10.084;2022-07-23T02:54:45;20.40;44.70
21682;DHT22;11002;48.256;10.084;2022-07-23T02:57:15;20.40;44.70
21682;DHT22;11002;48.256;10.084;2022-07-23T02:59:43;20.40;44.70
21682;DHT22;11002;48.256;10.084;2022-07-23T03:02:11;20.40;44.70
21682;DHT22;11002;48.256;10.084;2022-07-23T03:04:39;20.40;44.70
21682;DHT22;11002;48.256;10.084;2022-07-23T03:07:08;20.40;44.70
21682;DHT22;11002;48.256;10.084;2022-07-23T03:09:35;20.40;44.70
21682;DHT22;11002;48.256;10.084;2022-07-23T03:12:03;20.40;44.70
21682;DHT22;11002;48.256;10.084;2022-07-23T03:14:31;20.40;44.70
21682;DHT22;11002;48.256;10.084;2022-07-23T03:16:58;20.40;44.70
21682;DHT22;11002;48.256;10.084;2022-07-23T03:19:28;20.40;44.70
21682;DHT22;11002;48.256;10.084;2022-07-23T03:21:55;20.40;44.80
21682;DHT22;11002;48.256;10.084;2022-07-23T03:24:23;20.40;44.70
21682;DHT22;11002;48.256;10.084;2022-07-23T03:27:10;20.40;44.70
21682;DHT22;11002;48.256;10.084;2022-07-23T03:29:38;20.40;44.70
21682;DHT22;11002;48.256;10.084;2022-07-23T03:32:05;20.40;44.70
21682;DHT22;11002;48.256;10.084;2022-07-23T03:34:34;20.40;44.70
21682;DHT22;11002;48.256;10.084;2022-07-23T03:37:02;20.40;44.70
21682;DHT22;11002;48.256;10.084;2022-07-23T03:39:29;20.40;44.70
21682;DHT22;11002;48.256;10.084;2022-07-23T03:41:56;20.40;44.70
21682;DHT22;11002;48.256;10.084;2022-07-23T03:44:24;20.40;44.70
21682;DHT22;11002;48.256;10.084;2022-07-23T03:46:51;20.40;44.70
21682;DHT22;11002;48.256;10.084;2022-07-23T03:49:19;20.40;44.80
21682;DHT22;11002;48.256;10.084;2022-07-23T03:51:47;20.40;44.80
21682;DHT22;11002;48.256;10.084;2022-07-23T03:54:15;20.40;44.80
21682;DHT22;11002;48.256;10.084;2022-07-23T03:56:42;20.40;44.70
21682;DHT22;11002;48.256;10.084;2022-07-23T03:59:10;20.40;44.80
21682;DHT22;11002;48.256;10.084;2022-07-23T04:01:37;20.40;44.80
21682;DHT22;11002;48.256;10.084;2022-07-23T04:04:05;20.40;44.70
21682;DHT22;11002;48.256;10.084;2022-07-23T04:06:35;20.40;44.80
21682;DHT22;11002;48.256;10.084;2022-07-23T04:09:05;20.40;44.80
21682;DHT22;11002;48.256;10.084;2022-07-23T04:11:33;20.40;44.80
21682;DHT22;11002;48.256;10.084;2022-07-23T04:14:00;20.40;44.70
21682;DHT22;11002;48.256;10.084;2022-07-23T04:16:29;20.40;44.80
21682;DHT22;11002;48.256;10.084;2022-07-23T04:18:57;20.40;44.80
21682;DHT22;11002;48.256;10.084;2022-07-23T04:21:29;20.40;44.80
21682;DHT22;11002;48.256;10.084;2022-07-23T04:23:56;20.40;44.80
21682;DHT22;11002;48.256;10.084;2022-07-23T04:26:25;20.40;44.80
21682;DHT22;11002;48.256;10.084;2022-07-23T04:28:52;20.40;44.80
21682;DHT22;11002;48.256;10.084;2022-07-23T04:31:20;20.40;44.80
21682;DHT22;11002;48.256;10.084;2022-07-23T04:33:47;20.40;44.80
21682;DHT22;11002;48.256;10.084;2022-07-23T04:36:15;20.40;44.80
21682;DHT22;11002;48.256;10.084;2022-07-23T04:38:42;20.40;44.80
21682;DHT22;11002;48.256;10.084;2022-07-23T04:41:10;20.40;44.80
21682;DHT22;11002;48.256;10.084;2022-07-23T04:43:40;20.40;44.80
21682;DHT22;11002;48.256;10.084;2022-07-23T04:46:07;20.40;44.80
21682;DHT22;11002;48.256;10.084;2022-07-23T04:48:43;20.40;44.80
21682;DHT22;11002;48.256;10.084;2022-07-23T04:51:10;20.40;44.80
21682;DHT22;11002;48.256;10.084;2022-07-23T04:53:38;20.40;44.80
21682;DHT22;11002;48.256;10.084;2022-07-23T04:56:06;20.40;44.80
21682;DHT22;11002;48.256;10.084;2022-07-23T04:58:33;20.40;44.80
21682;DHT22;11002;48.256;10.084;2022-07-23T05:01:02;20.40;44.80
21682;DHT22;11002;48.256;10.084;2022-07-23T05:03:32;20.40;44.80
21682;DHT22;11002;48.256;10.084;2022-07-23T05:06:00;20.40;44.80
21682;DHT22;11002;48.256;10.084;2022-07-23T05:08:29;20.40;44.80
21682;DHT22;11002;48.256;10.084;2022-07-23T05:10:58;20.40;44.90
21682;DHT22;11002;48.256;10.084;2022-07-23T05:13:25;20.40;44.80
21682;DHT22;11002;48.256;10.084;2022-07-23T05:15:53;20.40;44.80
21682;DHT22;11002;48.256;10.084;2022-07-23T05:18:23;20.40;44.90
21682;DHT22;11002;48.256;10.084;2022-07-23T05:20:50;20.40;44.80
21682;DHT22;11002;48.256;10.084;2022-07-23T05:23:20;20.40;44.80
21682;DHT22;11002;48.256;10.084;2022-07-23T05:25:49;20.40;44.80
21682;DHT22;11002;48.256;10.084;2022-07-23T05:28:18;20.40;44.80
21682;DHT22;11002;48.256;10.084;2022-07-23T05:30:45;20.40;44.80
21682;DHT22;11002;48.256;10.084;2022-07-23T05:33:15;20.40;44.80
21682;DHT22;11002;48.256;10.084;2022-07-23T05:35:44;20.40;44.90
21682;DHT22;11002;48.256;10.084;2022-07-23T05:38:27;20.40;44.90
21682;DHT22;11002;48.256;10.084;2022-07-23T05:40:58;20.40;44.80
21682;DHT22;11002;48.256;10.084;2022-07-23T05:43:25;20.40;44.80
21682;DHT22;11002;48.256;10.084;2022-07-23T05:45:53;20.40;44.80
21682;DHT22;11002;48.256;10.084;2022-07-23T05:48:21;20.40;44.80
21682;DHT22;11002;48.256;10.084;2022-07-23T05:51:04;20.40;44.80
21682;DHT22;11002;48.256;10.084;2022-07-23T05:53:34;20.40;44.80
21682;DHT22;11002;48.256;10.084;2022-07-23T05:56:09;20.40;44.80
21682;DHT22;11002;48.256;10.084;2022-07-23T05:58:37;20.40;44.90
21682;DHT22;11002;48.256;10.084;2022-07-23T06:01:04;20.40;44.80
21682;DHT22;11002;48.256;10.084;2022-07-23T06:03:40;20.40;44.90
21682;DHT22;11002;48.256;10.084;2022-07-23T06:06:10;20.40;44.90
21682;DHT22;11002;48.256;10.084;2022-07-23T06:08:38;20.40;44.90
21682;DHT22;11002;48.256;10.084;2022-07-23T06:11:08;20.40;44.90
21682;DHT22;11002;48.256;10.084;2022-07-23T06:13:36;20.40;44.90
21682;DHT22;11002;48.256;10.084;2022-07-23T06:16:04;20.40;44.90
21682;DHT22;11002;48.256;10.084;2022-07-23T06:18:31;20.40;44.90
21682;DHT22;11002;48.256;10.084;2022-07-23T06:20:59;20.40;44.90
21682;DHT22;11002;48.256;10.084;2022-07-23T06:23:27;20.40;44.90
21682;DHT22;11002;48.256;10.084;2022-07-23T06:25:55;20.40;44.90
21682;DHT22;11002;48.256;10.084;2022-07-23T06:28:22;20.40;44.90
21682;DHT22;11002;48.256;10.084;2022-07-23T06:30:50;20.40;44.90
21682;DHT22;11002;48.256;10.084;2022-07-23T06:33:17;20.40;44.90
21682;DHT22;11002;48.256;10.084;2022-07-23T06:35:45;20.40;44.90
21682;DHT22;11002;48.256;10.084;2022-07-23T06:38:12;20.40;44.90
21682;DHT22;11002;48.256;10.084;2022-07-23T06:40:42;20.40;44.90
21682;DHT22;11002;48.256;10.084;2022-07-23T06:43:10;20.40;44.90
21682;DHT22;11002;48.256;10.084;2022-07-23T06:45:38;20.40;44.90
21682;DHT22;11002;48.256;10.084;2022-07-23T06:48:06;20.40;45.00
21682;DHT22;11002;48.256;10.084;2022-07-23T06:50:34;20.40;44.90
21682;DHT22;11002;48.256;10.084;2022-07-23T06:53:01;20.40;44.90
21682;DHT22;11002;48.256;10.084;2022-07-23T06:55:28;20.40;44.90
21682;DHT22;11002;48.256;10.084;2022-07-23T06:57:58;20.40;45.00
21682;DHT22;11002;48.256;10.084;2022-07-23T07:00:26;20.40;44.90
21682;DHT22;11002;48.256;10.084;2022-07-23T07:02:53;20.40;44.90
21682;DHT22;11002;48.256;10.084;2022-07-23T07:05:21;20.40;45.00
21682;DHT22;11002;48.256;10.084;2022-07-23T07:07:51;20.40;44.90
21682;DHT22;11002;48.256;10.084;2022-07-23T07:10:18;20.40;44.90
21682;DHT22;11002;48.256;10.084;2022-07-23T07:12:46;20.40;44.90
21682;DHT22;11002;48.256;10.084;2022-07-23T07:15:16;20.40;44.90
21682;DHT22;11002;48.256;10.084;2022-07-23T07:17:44;20.40;45.70
21682;DHT22;11002;48.256;10.084;2022-07-23T07:20:11;20.40;45.00
21682;DHT22;11002;48.256;10.084;2022-07-23T07:22:39;20.40;44.90
21682;DHT22;11002;48.256;10.084;2022-07-23T07:25:07;20.40;44.90
21682;DHT22;11002;48.256;10.084;2022-07-23T07:27:34;20.40;44.90
21682;DHT22;11002;48.256;10.084;2022-07-23T07:30:02;20.40;45.00
21682;DHT22;11002;48.256;10.084;2022-07-23T07:32:31;20.40;45.00
21682;DHT22;11002;48.256;10.084;2022-07-23T07:34:59;20.40;45.00
21682;DHT22;11002;48.256;10.084;2022-07-23T07:37:26;20.40;44.90
21682;DHT22;11002;48.256;10.084;2022-07-23T07:39:54;20.40;44.90
21682;DHT22;11002;48.256;10.084;2022-07-23T07:42:21;20.40;44.90
21682;DHT22;11002;48.256;10.084;2022-07-23T07:44:48;20.40;45.00
21682;DHT22;11002;48.256;10.084;2022-07-23T07:47:16;20.40;45.00
21682;DHT22;11002;48.256;10.084;2022-07-23T07:49:45;20.40;44.90
21682;DHT22;11002;48.256;10.084;2022-07-23T07:52:12;20.40;45.00
21682;DHT22;11002;48.256;10.084;2022-07-23T07:54:39;20.40;45.00
21682;DHT22;11002;48.256;10.084;2022-07-23T07:57:07;20.40;45.00
21682;DHT22;11002;48.256;10.084;2022-07-23T07:59:34;20.40;45.00
21682;DHT22;11002;48.256;10.084;2022-07-23T08:02:02;20.40;45.10
21682;DHT22;11002;48.256;10.084;2022-07-23T08:04:29;20.40;45.00
21682;DHT22;11002;48.256;10.084;2022-07-23T08:06:58;20.40;45.00
21682;DHT22;11002;48.256;10.084;2022-07-23T08:09:25;20.40;45.00
21682;DHT22;11002;48.256;10.084;2022-07-23T08:11:53;20.40;45.00
21682;DHT22;11002;48.256;10.084;2022-07-23T08:14:20;20.40;45.00
21682;DHT22;11002;48.256;10.084;2022-07-23T08:16:48;20.40;45.00
21682;DHT22;11002;48.256;10.084;2022-07-23T08:19:15;20.40;44.90
21682;DHT22;11002;48.256;10.084;2022-07-23T08:21:42;20.40;45.00
21682;DHT22;11002;48.256;10.084;2022-07-23T08:24:11;20.40;45.00
21682;DHT22;11002;48.256;10.084;2022-07-23T08:26:39;20.40;44.90
21682;DHT22;11002;48.256;10.084;2022-07-23T08:29:06;20.40;44.90
21682;DHT22;11002;48.256;10.084;2022-07-23T08:31:34;20.40;45.00
21682;DHT22;11002;48.256;10.084;2022-07-23T08:34:01;20.40;45.00
21682;DHT22;11002;48.256;10.084;2022-07-23T08:36:29;20.40;44.90
21682;DHT22;11002;48.256;10.084;2022-07-23T08:38:58;20.40;44.90
21682;DHT22;11002;48.256;10.084;2022-07-23T08:41:26;20.40;44.90
21682;DHT22;11002;48.256;10.084;2022-07-23T08:43:54;20.40;44.90
21682;DHT22;11002;48.256;10.084;2022-07-23T08:46:22;20.40;44.90
21682;DHT22;11002;48.256;10.084;2022-07-23T08:48:51;20.40;44.90
21682;DHT22;11002;48.256;10.084;2022-07-23T08:51:18;20.40;44.90
21682;DHT22;11002;48.256;10.084;2022-07-23T08:53:47;20.40;44.90
21682;DHT22;11002;48.256;10.084;2022-07-23T08:56:15;20.40;44.90
21682;DHT22;11002;48.256;10.084;2022-07-23T08:58:43;20.40;44.90
21682;DHT22;11002;48.256;10.084;2022-07-23T09:01:11;20.40;44.90
21682;DHT22;11002;48.256;10.084;2022-07-23T09:03:40;20.40;44.90
21682;DHT22;11002;48.256;10.084;2022-07-23T09:06:11;20.40;44.90
21682;DHT22;11002;48.256;10.084;2022-07-23T09:08:39;20.40;44.90
21682;DHT22;11002;48.256;10.084;2022-07-23T09:11:08;20.40;44.90
21682;DHT22;11002;48.256;10.084;2022-07-23T09:13:38;20.40;44.90
21682;DHT22;11002;48.256;10.084;2022-07-23T09:16:11;20.40;44.90
21682;DHT22;11002;48.256;10.084;2022-07-23T09:18:43;20.40;44.90
21682;DHT22;11002;48.256;10.084;2022-07-23T09:21:19;20.40;44.90
21682;DHT22;11002;48.256;10.084;2022-07-23T09:23:50;20.40;44.90
21682;DHT22;11002;48.256;10.084;2022-07-23T09:26:25;20.40;44.90
21682;DHT22;11002;48.256;10.084;2022-07-23T09:28:58;20.40;44.90
21682;DHT22;11002;48.256;10.084;2022-07-23T09:31:33;20.40;44.90
21682;DHT22;11002;48.256;10.084;2022-07-23T09:34:14;20.40;44.90
21682;DHT22;11002;48.256;10.084;2022-07-23T09:36:42;20.40;44.90
21682;DHT22;11002;48.256;10.084;2022-07-23T09:39:11;20.40;44.90
21682;DHT22;11002;48.256;10.084;2022-07-23T09:41:42;20.40;44.90
21682;DHT22;11002;48.256;10.084;2022-07-23T09:44:12;20.40;44.90
21682;DHT22;11002;48.256;10.084;2022-07-23T09:46:42;20.40;44.90
21682;DHT22;11002;48.256;10.084;2022-07-23T09:49:12;20.40;44.90
21682;DHT22;11002;48.256;10.084;2022-07-23T09:51:53;20.50;45.10
21682;DHT22;11002;48.256;10.084;2022-07-23T09:54:24;20.50;45.10
21682;DHT22;11002;48.256;10.084;2022-07-23T09:56:53;20.50;45.20
21682;DHT22;11002;48.256;10.084;2022-07-23T09:59:23;20.50;45.10
21682;DHT22;11002;48.256;10.084;2022-07-23T10:01:55;20.50;45.10
21682;DHT22;11002;48.256;10.084;2022-07-23T10:04:23;20.50;45.20
21682;DHT22;11002;48.256;10.084;2022-07-23T10:07:17;20.50;45.20
21682;DHT22;11002;48.256;10.084;2022-07-23T10:10:04;20.50;45.20
21682;DHT22;11002;48.256;10.084;2022-07-23T10:13:08;20.50;45.10
21682;DHT22;11002;48.256;10.084;2022-07-23T10:15:52;20.50;45.10
21682;DHT22;11002;48.256;10.084;2022-07-23T10:18:21;20.50;45.10
21682;DHT22;11002;48.256;10.084;2022-07-23T10:20:49;20.50;45.10
21682;DHT22;11002;48.256;10.084;2022-07-23T10:23:22;20.50;45.20
21682;DHT22;11002;48.256;10.084;2022-07-23T10:25:57;20.50;45.20
21682;DHT22;11002;48.256;10.084;2022-07-23T10:28:42;20.50;45.20
21682;DHT22;11002;48.256;10.084;2022-07-23T10:31:24;20.50;45.20
21682;DHT22;11002;48.256;10.084;2022-07-23T10:34:01;20.50;45.10
21682;DHT22;11002;48.256;10.084;2022-07-23T10:36:36;20.50;45.10
21682;DHT22;11002;48.256;10.084;2022-07-23T10:39:07;20.50;45.10
21682;DHT22;11002;48.256;10.084;2022-07-23T10:41:36;20.50;45.10
21682;DHT22;11002;48.256;10.084;2022-07-23T10:44:09;20.50;45.10
21682;DHT22;11002;48.256;10.084;2022-07-23T10:46:54;20.50;45.10
21682;DHT22;11002;48.256;10.084;2022-07-23T10:49:29;20.50;45.20
21682;DHT22;11002;48.256;10.084;2022-07-23T10:52:16;20.50;45.10
21682;DHT22;11002;48.256;10.084;2022-07-23T10:54:46;20.50;45.20
21682;DHT22;11002;48.256;10.084;2022-07-23T10:57:15;20.50;45.10
21682;DHT22;11002;48.256;10.084;2022-07-23T11:02:57;20.50;45.20
21682;DHT22;11002;48.256;10.084;2022-07-23T11:05:40;20.50;45.10
21682;DHT22;11002;48.256;10.084;2022-07-23T11:08:16;20.50;45.10
21682;DHT22;11002;48.256;10.084;2022-07-23T11:10:51;20.50;45.10
21682;DHT22;11002;48.256;10.084;2022-07-23T11:13:30;20.50;45.10
21682;DHT22;11002;48.256;10.084;2022-07-23T11:16:14;20.50;45.10
21682;DHT22;11002;48.256;10.084;2022-07-23T11:19:10;20.50;45.10
21682;DHT22;11002;48.256;10.084;2022-07-23T11:21:46;20.50;45.80
21682;DHT22;11002;48.256;10.084;2022-07-23T11:24:16;20.50;45.20
21682;DHT22;11002;48.256;10.084;2022-07-23T11:26:50;20.50;45.40
21682;DHT22;11002;48.256;10.084;2022-07-23T11:29:40;20.50;45.40
21682;DHT22;11002;48.256;10.084;2022-07-23T11:32:17;20.50;45.40
21682;DHT22;11002;48.256;10.084;2022-07-23T11:34:46;20.60;45.40
21682;DHT22;11002;48.256;10.084;2022-07-23T11:37:31;20.50;45.20
21682;DHT22;11002;48.256;10.084;2022-07-23T11:39:59;20.50;45.30
21682;DHT22;11002;48.256;10.084;2022-07-23T11:42:27;20.50;45.20
21682;DHT22;11002;48.256;10.084;2022-07-23T11:44:54;20.50;45.20
21682;DHT22;11002;48.256;10.084;2022-07-23T11:47:23;20.60;45.30
21682;DHT22;11002;48.256;10.084;2022-07-23T11:49:56;20.50;45.10
21682;DHT22;11002;48.256;10.084;2022-07-23T11:52:24;20.50;45.20
21682;DHT22;11002;48.256;10.084;2022-07-23T11:54:55;20.60;45.30
21682;DHT22;11002;48.256;10.084;2022-07-23T11:57:25;20.50;45.20
21682;DHT22;11002;48.256;10.084;2022-07-23T11:59:55;20.50;45.10
21682;DHT22;11002;48.256;10.084;2022-07-23T12:02:23;20.50;45.10
21682;DHT22;11002;48.256;10.084;2022-07-23T12:04:52;20.50;45.10
21682;DHT22;11002;48.256;10.084;2022-07-23T12:07:27;20.50;45.20
21682;DHT22;11002;48.256;10.084;2022-07-23T12:09:58;20.50;45.20
21682;DHT22;11002;48.256;10.084;2022-07-23T12:12:27;20.50;45.20
21682;DHT22;11002;48.256;10.084;2022-07-23T12:14:56;20.50;45.20
21682;DHT22;11002;48.256;10.084;2022-07-23T12:17:28;20.50;45.20
21682;DHT22;11002;48.256;10.084;2022-07-23T12:19:57;20.50;45.20
21682;DHT22;11002;48.256;10.084;2022-07-23T12:22:26;20.50;45.20
21682;DHT22;11002;48.256;10.084;2022-07-23T12:25:03;20.50;45.20
21682;DHT22;11002;48.256;10.084;2022-07-23T12:27:31;20.50;45.10
21682;DHT22;11002;48.256;10.084;2022-07-23T12:29:59;20.50;45.10
21682;DHT22;11002;48.256;10.084;2022-07-23T12:32:28;20.50;45.20
21682;DHT22;11002;48.256;10.084;2022-07-23T12:35:13;20.50;45.20
21682;DHT22;11002;48.256;10.084;2022-07-23T12:37:41;20.50;45.20
21682;DHT22;11002;48.256;10.084;2022-07-23T12:40:28;20.50;45.20
21682;DHT22;11002;48.256;10.084;2022-07-23T12:42:57;20.50;45.30
21682;DHT22;11002;48.256;10.084;2022-07-23T12:45:26;20.50;45.20
21682;DHT22;11002;48.256;10.084;2022-07-23T12:48:00;20.50;45.20
21682;DHT22;11002;48.256;10.084;2022-07-23T12:50:57;20.50;45.20
21682;DHT22;11002;48.256;10.084;2022-07-23T12:53:27;20.50;45.30
21682;DHT22;11002;48.256;10.084;2022-07-23T12:56:05;20.50;45.20
21682;DHT22;11002;48.256;10.084;2022-07-23T12:58:41;20.50;45.20
21682;DHT22;11002;48.256;10.084;2022-07-23T13:01:09;20.50;45.30
21682;DHT22;11002;48.256;10.084;2022-07-23T13:03:40;20.50;45.20
21682;DHT22;11002;48.256;10.084;2022-07-23T13:06:09;20.50;45.20
21682;DHT22;11002;48.256;10.084;2022-07-23T13:08:38;20.50;45.30
21682;DHT22;11002;48.256;10.084;2022-07-23T13:11:07;20.50;45.30
21682;DHT22;11002;48.256;10.084;2022-07-23T13:13:35;20.50;45.30
21682;DHT22;11002;48.256;10.084;2022-07-23T13:16:03;20.50;45.20
21682;DHT22;11002;48.256;10.084;2022-07-23T13:18:31;20.50;45.20
21682;DHT22;11002;48.256;10.084;2022-07-23T13:21:00;20.50;45.20
21682;DHT22;11002;48.256;10.084;2022-07-23T13:23:28;20.50;45.20
21682;DHT22;11002;48.256;10.084;2022-07-23T13:25:55;20.50;45.20
21682;DHT22;11002;48.256;10.084;2022-07-23T13:28:24;20.50;45.20
21682;DHT22;11002;48.256;10.084;2022-07-23T13:30:52;20.50;45.20
21682;DHT22;11002;48.256;10.084;2022-07-23T13:33:21;20.50;45.20
21682;DHT22;11002;48.256;10.084;2022-07-23T13:35:49;20.50;45.10
21682;DHT22;11002;48.256;10.084;2022-07-23T13:38:17;20.50;45.10
21682;DHT22;11002;48.256;10.084;2022-07-23T13:40:48;20.50;45.20
21682;DHT22;11002;48.256;10.084;2022-07-23T13:43:17;20.50;45.20
21682;DHT22;11002;48.256;10.084;2022-07-23T13:45:46;20.50;45.20
21682;DHT22;11002;48.256;10.084;2022-07-23T13:48:14;20.50;45.20
21682;DHT22;11002;48.256;10.084;2022-07-23T13:50:43;20.50;45.20
21682;DHT22;11002;48.256;10.084;2022-07-23T13:53:12;20.50;45.20
21682;DHT22;11002;48.256;10.084;2022-07-23T13:55:41;20.50;45.20
21682;DHT22;11002;48.256;10.084;2022-07-23T13:58:09;20.50;45.20
21682;DHT22;11002;48.256;10.084;2022-07-23T14:00:38;20.50;45.20
21682;DHT22;11002;48.256;10.084;2022-07-23T14:03:07;20.50;45.20
21682;DHT22;11002;48.256;10.084;2022-07-23T14:05:35;20.50;45.20
21682;DHT22;11002;48.256;10.084;2022-07-23T14:08:02;20.50;45.10
21682;DHT22;11002;48.256;10.084;2022-07-23T14:10:30;20.50;45.20
21682;DHT22;11002;48.256;10.084;2022-07-23T14:12:58;20.50;45.20
21682;DHT22;11002;48.256;10.084;2022-07-23T14:15:26;20.50;45.10
21682;DHT22;11002;48.256;10.084;2022-07-23T14:17:54;20.50;45.20
21682;DHT22;11002;48.256;10.084;2022-07-23T14:20:23;20.50;45.10
21682;DHT22;11002;48.256;10.084;2022-07-23T14:22:51;20.50;45.10
21682;DHT22;11002;48.256;10.084;2022-07-23T14:25:19;20.50;45.10
21682;DHT22;11002;48.256;10.084;2022-07-23T14:27:46;20.50;45.10
21682;DHT22;11002;48.256;10.084;2022-07-23T14:30:17;20.50;45.10
21682;DHT22;11002;48.256;10.084;2022-07-23T14:32:44;20.50;45.10
21682;DHT22;11002;48.256;10.084;2022-07-23T14:35:11;20.50;45.10
21682;DHT22;11002;48.256;10.084;2022-07-23T14:37:40;20.50;45.10
21682;DHT22;11002;48.256;10.084;2022-07-23T14:40:08;20.50;45.10
21682;DHT22;11002;48.256;10.084;2022-07-23T14:42:35;20.50;45.10
21682;DHT22;11002;48.256;10.084;2022-07-23T14:45:03;20.50;45.10
21682;DHT22;11002;48.256;10.084;2022-07-23T14:47:32;20.50;45.10
21682;DHT22;11002;48.256;10.084;2022-07-23T14:49:59;20.50;45.10
21682;DHT22;11002;48.256;10.084;2022-07-23T14:52:27;20.50;45.10
21682;DHT22;11002;48.256;10.084;2022-07-23T14:54:55;20.50;45.10
21682;DHT22;11002;48.256;10.084;2022-07-23T14:57:23;20.50;45.10
21682;DHT22;11002;48.256;10.084;2022-07-23T14:59:50;20.50;45.10
21682;DHT22;11002;48.256;10.084;2022-07-23T15:02:18;20.50;45.10
21682;DHT22;11002;48.256;10.084;2022-07-23T15:04:45;20.50;45.10
21682;DHT22;11002;48.256;10.084;2022-07-23T15:07:13;20.50;45.10
21682;DHT22;11002;48.256;10.084;2022-07-23T15:09:40;20.50;45.10
21682;DHT22;11002;48.256;10.084;2022-07-23T15:12:09;20.50;45.10
21682;DHT22;11002;48.256;10.084;2022-07-23T15:14:36;20.50;45.00
21682;DHT22;11002;48.256;10.084;2022-07-23T15:17:04;20.50;45.10
21682;DHT22;11002;48.256;10.084;2022-07-23T15:19:31;20.50;45.00
21682;DHT22;11002;48.256;10.084;2022-07-23T15:21:59;20.50;45.00
21682;DHT22;11002;48.256;10.084;2022-07-23T15:24:26;20.50;45.00
21682;DHT22;11002;48.256;10.084;2022-07-23T15:26:54;20.50;45.10
21682;DHT22;11002;48.256;10.084;2022-07-23T15:29:22;20.50;45.10
21682;DHT22;11002;48.256;10.084;2022-07-23T15:31:50;20.50;45.10
21682;DHT22;11002;48.256;10.084;2022-07-23T15:34:17;20.50;45.10